Time;durP1;ratioP1;P1;durP2;ratioP2;P2;SDS_P1;SDS_P2;PMS_P1;PMS_P2;Temp;Humidity;BMP_temperature;BMP_pressure;BME280_temperature;BME280_humidity;BME280_pressure;Samples;Min_cycle;Max_cycle;Signal;HPM_P1;HPM_P2
2021/11/08 00:01:02;;;;;;;21.73;11.70;;;;;;;;;;4991921;28;20054;-44
2021/11/08 00:03:32;;;;;;;14.77;13.27;;;;;;;;;;4992914;28;20046;-44
2021/11/08 00:06:02;;;;;;;11.95;11.05;;;;;;;;;;4990972;28;20475;-45
2021/11/08 00:08:29;;;;;;;13.80;12.70;;;;;;;;;;4992119;28;20060;-44
2021/11/08 00:10:56;;;;;;;11.73;10.77;;;;;;;;;;4989456;28;20030;-44
2021/11/08 00:13:24;;;;;;;12.63;10.95;;;;;;;;;;4990375;28;20097;-44
2021/11/08 00:16:04;;;;;;;10.57;9.73;;;;;;;;;;4991952;28;20042;-45
2021/11/08 00:21:00;;;;;;;13.65;8.95;;;;;;;;;;4986360;28;20050;-44
2021/11/08 00:23:28;;;;;;;8.30;7.70;;;;;;;;;;4986884;28;20047;-46
2021/11/08 00:26:00;;;;;;;10.65;9.63;;;;;;;;;;4977719;28;20065;-44
2021/11/08 00:28:26;;;;;;;10.32;9.57;;;;;;;;;;4991799;28;20046;-44
2021/11/08 00:30:54;;;;;;;8.82;8.40;;;;;;;;;;4988179;28;20449;-44
2021/11/08 00:33:21;;;;;;;8.65;8.18;;;;;;;;;;4986301;28;20089;-44
2021/11/08 00:35:53;;;;;;;9.00;8.32;;;;;;;;;;4986411;28;20554;-45
2021/11/08 00:38:20;;;;;;;7.70;7.30;;;;;;;;;;4985573;28;20035;-44
2021/11/08 00:40:47;;;;;;;7.32;7.05;;;;;;;;;;4988340;28;20125;-45
2021/11/08 00:43:14;;;;;;;8.20;7.43;;;;;;;;;;4985198;28;20552;-44
2021/11/08 00:45:41;;;;;;;11.82;10.77;;;;;;;;;;4990862;28;20077;-44
2021/11/08 00:48:08;;;;;;;11.45;10.75;;;;;;;;;;4989935;28;20070;-44
2021/11/08 00:50:35;;;;;;;11.98;10.95;;;;;;;;;;4992230;28;20458;-45
2021/11/08 00:53:02;;;;;;;13.77;11.65;;;;;;;;;;4989579;28;20042;-44
2021/11/08 00:55:30;;;;;;;20.90;12.63;;;;;;;;;;4989145;28;20389;-45
2021/11/08 00:57:59;;;;;;;15.95;14.15;;;;;;;;;;4991804;28;20085;-44
2021/11/08 01:00:28;;;;;;;12.40;11.38;;;;;;;;;;4987154;28;20035;-45
2021/11/08 01:02:56;;;;;;;10.85;10.10;;;;;;;;;;4979608;28;20055;-45
2021/11/08 01:05:23;;;;;;;12.40;11.45;;;;;;;;;;4988706;28;20546;-45
2021/11/08 01:07:49;;;;;;;12.35;11.32;;;;;;;;;;4989890;28;20536;-47
2021/11/08 01:10:18;;;;;;;10.60;9.70;;;;;;;;;;4990230;28;20096;-44
2021/11/08 01:12:45;;;;;;;11.18;10.55;;;;;;;;;;4988918;28;20031;-47
2021/11/08 01:15:13;;;;;;;11.65;10.50;;;;;;;;;;4991098;28;20104;-44
2021/11/08 01:17:40;;;;;;;49.28;16.58;;;;;;;;;;4987096;28;20034;-45
2021/11/08 01:20:09;;;;;;;76.55;19.17;;;;;;;;;;4987086;28;20089;-45
2021/11/08 01:22:36;;;;;;;17.38;15.60;;;;;;;;;;4989334;28;20077;-45
2021/11/08 01:25:03;;;;;;;31.45;18.95;;;;;;;;;;4988806;28;20065;-47
2021/11/08 01:27:36;;;;;;;198.70;24.13;;;;;;;;;;4985524;28;20039;-43
2021/11/08 01:30:27;;;;;;;28.00;17.27;;;;;;;;;;4987015;28;20490;-45
2021/11/08 01:38:12;;;;;;;16.48;14.95;;;;;;;;;;4986627;28;20069;-44
2021/11/08 01:40:40;;;;;;;18.05;16.63;;;;;;;;;;4988380;28;20438;-45
2021/11/08 01:43:08;;;;;;;17.60;16.50;;;;;;;;;;4987290;28;20046;-45
2021/11/08 01:45:35;;;;;;;18.80;17.48;;;;;;;;;;4988146;28;20146;-44
2021/11/08 01:48:03;;;;;;;20.23;18.63;;;;;;;;;;4989557;28;20057;-46
2021/11/08 01:50:30;;;;;;;18.75;17.35;;;;;;;;;;4987398;28;20137;-46
2021/11/08 01:52:58;;;;;;;17.70;16.50;;;;;;;;;;4989943;28;20034;-45
2021/11/08 01:55:26;;;;;;;17.48;15.98;;;;;;;;;;4986680;28;20070;-45
2021/11/08 01:57:53;;;;;;;117.15;19.52;;;;;;;;;;4987244;28;20038;-44
2021/11/08 02:00:20;;;;;;;396.50;29.27;;;;;;;;;;4988755;28;20030;-46
2021/11/08 02:02:47;;;;;;;258.38;26.60;;;;;;;;;;4987047;28;20038;-45
2021/11/08 02:05:14;;;;;;;321.92;28.20;;;;;;;;;;4990238;28;20078;-45
2021/11/08 02:07:41;;;;;;;258.33;28.63;;;;;;;;;;4986246;28;20067;-46
2021/11/08 02:10:09;;;;;;;310.50;29.05;;;;;;;;;;4986877;28;20066;-45
2021/11/08 02:12:36;;;;;;;109.47;22.60;;;;;;;;;;4987971;28;20066;-45
2021/11/08 02:15:05;;;;;;;125.30;23.45;;;;;;;;;;4987718;28;20125;-44
2021/11/08 02:17:32;;;;;;;146.70;25.25;;;;;;;;;;4990474;28;20809;-45
2021/11/08 02:20:11;;;;;;;27.48;20.30;;;;;;;;;;4984831;28;20121;-48
2021/11/08 02:22:38;;;;;;;33.25;18.15;;;;;;;;;;4988913;28;20050;-45
2021/11/08 02:25:04;;;;;;;51.33;15.18;;;;;;;;;;4989887;28;20046;-44
2021/11/08 02:27:31;;;;;;;47.67;15.25;;;;;;;;;;4985305;28;20038;-44
2021/11/08 02:29:58;;;;;;;110.45;19.67;;;;;;;;;;4989524;28;20077;-44
2021/11/08 02:32:25;;;;;;;138.45;23.00;;;;;;;;;;4986619;28;20434;-43
2021/11/08 02:34:52;;;;;;;109.72;24.10;;;;;;;;;;4983302;28;20182;-43
2021/11/08 02:37:19;;;;;;;79.05;21.15;;;;;;;;;;4989105;28;20084;-44
2021/11/08 02:39:48;;;;;;;100.88;19.25;;;;;;;;;;4987574;28;20047;-45
2021/11/08 02:42:15;;;;;;;56.03;18.08;;;;;;;;;;4990035;28;20074;-44
2021/11/08 02:44:42;;;;;;;168.43;22.08;;;;;;;;;;4987010;28;20528;-46
2021/11/08 02:47:09;;;;;;;45.03;16.58;;;;;;;;;;4988014;28;20038;-44
2021/11/08 02:49:40;;;;;;;47.67;17.35;;;;;;;;;;4988772;28;20125;-44
2021/11/08 02:52:09;;;;;;;126.45;19.55;;;;;;;;;;4986773;28;20077;-44
2021/11/08 02:54:39;;;;;;;21.45;15.52;;;;;;;;;;4988840;28;20515;-44
2021/11/08 02:57:06;;;;;;;34.80;14.63;;;;;;;;;;4986609;28;20065;-44
2021/11/08 02:59:35;;;;;;;19.10;13.38;;;;;;;;;;4989220;28;20088;-44
2021/11/08 03:02:03;;;;;;;41.70;16.08;;;;;;;;;;4986654;28;20047;-44
2021/11/08 03:04:42;;;;;;;153.85;22.52;;;;;;;;;;4978562;28;20038;-44
2021/11/08 03:07:08;;;;;;;65.15;22.10;;;;;;;;;;4981603;28;20518;-43
2021/11/08 03:09:37;;;;;;;244.32;27.92;;;;;;;;;;4985865;28;20049;-44
2021/11/08 03:12:14;;;;;;;107.38;22.00;;;;;;;;;;4980444;28;20043;-43
2021/11/08 03:14:43;;;;;;;132.38;20.67;;;;;;;;;;4988127;28;20039;-43
2021/11/08 03:17:12;;;;;;;97.10;21.25;;;;;;;;;;4987227;28;20114;-43
2021/11/08 03:19:40;;;;;;;17.95;16.75;;;;;;;;;;4979629;28;20089;-43
2021/11/08 03:22:13;;;;;;;37.00;15.52;;;;;;;;;;4981370;28;20176;-45
2021/11/08 03:27:25;;;;;;;26.08;14.27;;;;;;;;;;4987755;28;20046;-44
2021/11/08 03:29:52;;;;;;;26.10;17.58;;;;;;;;;;4986769;28;20074;-44
2021/11/08 03:32:20;;;;;;;62.28;18.55;;;;;;;;;;4980238;28;20212;-44
2021/11/08 03:34:59;;;;;;;29.75;17.80;;;;;;;;;;4982582;28;20047;-44
2021/11/08 03:37:27;;;;;;;50.08;19.13;;;;;;;;;;4987537;28;20503;-45
2021/11/08 03:39:53;;;;;;;45.05;20.20;;;;;;;;;;4983180;28;20055;-43
2021/11/08 03:42:20;;;;;;;51.05;17.83;;;;;;;;;;4987788;28;20045;-45
2021/11/08 03:44:47;;;;;;;27.10;17.52;;;;;;;;;;4989306;28;20046;-45
2021/11/08 03:47:14;;;;;;;49.65;20.42;;;;;;;;;;4987295;28;20097;-44
2021/11/08 03:49:41;;;;;;;32.05;19.05;;;;;;;;;;4988124;28;20508;-44
2021/11/08 03:52:08;;;;;;;20.80;17.42;;;;;;;;;;4987657;28;20522;-47
2021/11/08 03:54:35;;;;;;;44.67;18.75;;;;;;;;;;4987189;28;20482;-44
2021/11/08 03:57:02;;;;;;;20.83;17.90;;;;;;;;;;4987872;28;20121;-47
2021/11/08 03:59:28;;;;;;;32.80;14.80;;;;;;;;;;4986260;28;20063;-47
2021/11/08 04:02:00;;;;;;;18.13;16.65;;;;;;;;;;4989147;28;20038;-44
2021/11/08 04:04:26;;;;;;;33.70;16.90;;;;;;;;;;4985764;28;20093;-46
2021/11/08 04:06:53;;;;;;;56.33;17.45;;;;;;;;;;4987187;28;20145;-46
2021/11/08 04:09:20;;;;;;;49.63;18.02;;;;;;;;;;4989514;28;20066;-47
2021/11/08 04:11:47;;;;;;;80.47;18.67;;;;;;;;;;4984832;28;20038;-45
2021/11/08 04:14:15;;;;;;;165.68;21.33;;;;;;;;;;4993141;28;20046;-46
2021/11/08 04:16:43;;;;;;;51.72;18.13;;;;;;;;;;4988595;28;20100;-46
2021/11/08 04:19:11;;;;;;;159.77;23.48;;;;;;;;;;4989406;28;20038;-45
2021/11/08 04:21:38;;;;;;;19.70;17.98;;;;;;;;;;4991620;28;20109;-46
2021/11/08 04:24:05;;;;;;;79.30;19.52;;;;;;;;;;4990098;28;20757;-47
2021/11/08 04:26:33;;;;;;;58.45;17.83;;;;;;;;;;4992158;28;20066;-48
2021/11/08 04:29:03;;;;;;;37.35;17.20;;;;;;;;;;4990649;28;20049;-45
2021/11/08 04:31:34;;;;;;;17.33;14.07;;;;;;;;;;4978994;28;20421;-48
2021/11/08 04:34:24;;;;;;;16.42;15.80;;;;;;;;;;4989928;28;20108;-44
2021/11/08 04:50:12;;;;;;;29.42;20.45;;;;;;;;;;4988467;28;20114;-45
2021/11/08 05:22:58;;;;;;;83.05;20.27;;;;;;;;;;4983966;28;20061;-44
2021/11/08 05:30:21;;;;;;;28.90;17.38;;;;;;;;;;4987113;28;20073;-44
2021/11/08 05:32:49;;;;;;;17.70;16.60;;;;;;;;;;4987604;28;20038;-43
2021/11/08 05:35:16;;;;;;;31.90;16.65;;;;;;;;;;4989198;28;20100;-44
2021/11/08 05:37:44;;;;;;;67.63;18.33;;;;;;;;;;4990510;28;20035;-43
2021/11/08 05:40:14;;;;;;;33.00;15.60;;;;;;;;;;4988474;28;20038;-44
2021/11/08 05:42:42;;;;;;;47.97;15.90;;;;;;;;;;4981090;28;20046;-44
2021/11/08 05:45:12;;;;;;;49.80;15.57;;;;;;;;;;4989976;28;20494;-43
2021/11/08 05:47:39;;;;;;;51.17;18.75;;;;;;;;;;4981156;28;20038;-44
2021/11/08 05:50:07;;;;;;;51.80;23.98;;;;;;;;;;4990068;28;20729;-44
2021/11/08 05:52:33;;;;;;;129.13;21.58;;;;;;;;;;4987569;28;20038;-44
2021/11/08 05:55:00;;;;;;;62.05;19.50;;;;;;;;;;4989980;28;20086;-44
2021/11/08 05:57:42;;;;;;;118.55;16.75;;;;;;;;;;4990019;28;20555;-44
2021/11/08 06:49:58;;;;;;;48.38;19.58;;;;;;;;;;4986794;28;20088;-43
2021/11/08 06:52:27;;;;;;;23.85;18.20;;;;;;;;;;4988986;28;20140;-42
2021/11/08 06:54:53;;;;;;;58.75;16.52;;;;;;;;;;4987326;28;20069;-42
2021/11/08 06:57:20;;;;;;;57.80;19.63;;;;;;;;;;4975919;28;20042;-43
2021/11/08 06:59:49;;;;;;;17.83;16.83;;;;;;;;;;4989443;28;20109;-42
2021/11/08 07:02:17;;;;;;;70.45;20.65;;;;;;;;;;4986101;28;20100;-43
2021/11/08 07:04:43;;;;;;;88.28;19.08;;;;;;;;;;4988673;28;20554;-43
2021/11/08 07:07:11;;;;;;;48.25;17.35;;;;;;;;;;4985700;28;20145;-42
2021/11/08 07:09:38;;;;;;;57.25;17.88;;;;;;;;;;4978916;28;20050;-43
2021/11/08 07:12:06;;;;;;;141.10;20.40;;;;;;;;;;4987106;28;20073;-41
2021/11/08 07:14:33;;;;;;;97.13;19.05;;;;;;;;;;4987057;28;20403;-43
2021/11/08 07:17:00;;;;;;;238.70;26.92;;;;;;;;;;4989237;28;20114;-43
2021/11/08 07:19:26;;;;;;;55.35;18.02;;;;;;;;;;4987210;28;20359;-42
2021/11/08 07:21:54;;;;;;;93.10;22.08;;;;;;;;;;4989139;28;20545;-42
2021/11/08 07:24:20;;;;;;;124.43;21.60;;;;;;;;;;4984367;28;20054;-43
2021/11/08 07:26:47;;;;;;;77.25;19.10;;;;;;;;;;4974545;28;20462;-42
2021/11/08 07:29:15;;;;;;;84.70;19.83;;;;;;;;;;4986648;28;20073;-42
2021/11/08 07:31:42;;;;;;;97.47;20.13;;;;;;;;;;4978385;28;20038;-43
2021/11/08 07:34:09;;;;;;;65.30;18.30;;;;;;;;;;4985630;28;20446;-43
2021/11/08 07:36:36;;;;;;;41.55;19.17;;;;;;;;;;4982615;28;20938;-41
2021/11/08 07:39:04;;;;;;;173.27;20.48;;;;;;;;;;4972670;28;20042;-42
2021/11/08 07:41:30;;;;;;;110.50;21.33;;;;;;;;;;4986914;28;20682;-41
2021/11/08 07:43:57;;;;;;;107.28;20.48;;;;;;;;;;4988767;28;20130;-42
2021/11/08 07:46:24;;;;;;;25.73;20.52;;;;;;;;;;4993143;28;20552;-42
2021/11/08 07:48:50;;;;;;;115.50;20.65;;;;;;;;;;4987190;28;20102;-42
2021/11/08 07:51:18;;;;;;;98.50;19.65;;;;;;;;;;4993402;28;20042;-42
2021/11/08 07:53:45;;;;;;;16.25;15.38;;;;;;;;;;4990553;28;20050;-41
2021/11/08 07:56:12;;;;;;;40.28;16.95;;;;;;;;;;4989152;28;20109;-42
2021/11/08 07:58:38;;;;;;;134.85;21.73;;;;;;;;;;4991831;28;20117;-42
2021/11/08 08:01:06;;;;;;;253.13;26.30;;;;;;;;;;4986798;28;20114;-41
2021/11/08 08:03:33;;;;;;;39.70;14.52;;;;;;;;;;4993324;28;20425;-42
2021/11/08 08:06:00;;;;;;;87.30;18.13;;;;;;;;;;4991138;28;20097;-41
2021/11/08 08:08:27;;;;;;;171.85;22.30;;;;;;;;;;4989132;28;20140;-42
2021/11/08 08:10:54;;;;;;;83.25;15.73;;;;;;;;;;4990029;28;20046;-41
2021/11/08 08:13:25;;;;;;;134.15;20.50;;;;;;;;;;4987494;28;20031;-43
2021/11/08 08:15:53;;;;;;;166.80;20.17;;;;;;;;;;4986201;28;20093;-41
2021/11/08 08:18:20;;;;;;;166.20;17.90;;;;;;;;;;4988724;28;20113;-41
2021/11/08 08:20:46;;;;;;;50.75;10.40;;;;;;;;;;4990370;28;20560;-41
2021/11/08 08:23:13;;;;;;;111.05;16.00;;;;;;;;;;4991959;28;20047;-41
2021/11/08 08:25:40;;;;;;;11.48;6.78;;;;;;;;;;4991820;28;20442;-41
2021/11/08 08:28:06;;;;;;;159.27;14.35;;;;;;;;;;4981641;28;20074;-41
2021/11/08 08:30:33;;;;;;;108.57;12.88;;;;;;;;;;4988876;28;20054;-42
2021/11/08 08:33:00;;;;;;;36.95;9.85;;;;;;;;;;4976832;28;20145;-41
2021/11/08 08:35:26;;;;;;;68.35;10.23;;;;;;;;;;4991112;28;20065;-42
2021/11/08 08:37:53;;;;;;;54.85;10.82;;;;;;;;;;4989738;28;20062;-41
2021/11/08 08:40:20;;;;;;;17.55;5.13;;;;;;;;;;4992270;28;20525;-43
2021/11/08 08:42:46;;;;;;;132.23;9.40;;;;;;;;;;4990608;28;20509;-41
2021/11/08 08:45:13;;;;;;;22.50;7.70;;;;;;;;;;4992214;28;20129;-41
2021/11/08 08:47:42;;;;;;;14.98;5.50;;;;;;;;;;4988911;28;20046;-42
2021/11/08 08:50:09;;;;;;;59.58;7.82;;;;;;;;;;4989719;28;20046;-41
2021/11/08 08:52:36;;;;;;;100.13;8.55;;;;;;;;;;4992279;28;20038;-41
2021/11/08 08:55:03;;;;;;;36.25;6.55;;;;;;;;;;4990248;28;20491;-41
2021/11/08 08:57:30;;;;;;;5.00;4.55;;;;;;;;;;4991338;28;20437;-41
2021/11/08 08:59:59;;;;;;;33.95;5.05;;;;;;;;;;4988680;28;20466;-41
2021/11/08 09:02:50;;;;;;;114.55;7.65;;;;;;;;;;4989377;28;20042;-42
2021/11/08 09:05:17;;;;;;;65.70;6.95;;;;;;;;;;4991159;28;20056;-41
2021/11/08 09:07:48;;;;;;;40.55;7.28;;;;;;;;;;4988311;28;20042;-41
2021/11/08 09:10:14;;;;;;;21.38;6.25;;;;;;;;;;4992259;28;20058;-41
2021/11/08 09:12:41;;;;;;;13.20;6.55;;;;;;;;;;4987064;28;20042;-41
2021/11/08 09:15:08;;;;;;;80.93;9.30;;;;;;;;;;4986294;28;20069;-43
2021/11/08 09:17:35;;;;;;;141.60;12.25;;;;;;;;;;4991043;28;20037;-42
2021/11/08 09:20:06;;;;;;;168.68;12.85;;;;;;;;;;4988383;28;20133;-41
2021/11/08 09:22:33;;;;;;;20.60;7.07;;;;;;;;;;4986813;28;20050;-42
2021/11/08 09:25:00;;;;;;;13.75;8.30;;;;;;;;;;4986753;28;20498;-41
2021/11/08 09:27:26;;;;;;;13.15;9.32;;;;;;;;;;4979821;28;20085;-42
2021/11/08 09:29:53;;;;;;;32.30;9.68;;;;;;;;;;4990963;28;20042;-42
2021/11/08 09:32:20;;;;;;;15.63;10.55;;;;;;;;;;4989687;28;20554;-42
2021/11/08 09:34:48;;;;;;;15.63;9.68;;;;;;;;;;4991628;28;20133;-42
2021/11/08 09:37:17;;;;;;;25.05;9.43;;;;;;;;;;4989432;28;20035;-41
2021/11/08 09:39:45;;;;;;;9.85;8.77;;;;;;;;;;4991266;28;20097;-41
2021/11/08 09:42:14;;;;;;;9.80;8.90;;;;;;;;;;4989728;28;20061;-41
2021/11/08 09:44:41;;;;;;;10.32;9.52;;;;;;;;;;4989876;28;20438;-42
2021/11/08 09:47:07;;;;;;;11.27;10.23;;;;;;;;;;4990242;28;20081;-42
2021/11/08 09:49:36;;;;;;;10.77;9.63;;;;;;;;;;4987154;28;20100;-42
2021/11/08 09:52:05;;;;;;;16.52;15.02;;;;;;;;;;4990403;28;20446;-42
2021/11/08 09:54:40;;;;;;;11.82;10.80;;;;;;;;;;4989206;28;20027;-42
2021/11/08 09:57:07;;;;;;;12.02;9.30;;;;;;;;;;4989778;28;20521;-41
2021/11/08 09:59:34;;;;;;;9.70;8.18;;;;;;;;;;4990828;28;20648;-41
2021/11/08 10:02:01;;;;;;;5.70;5.50;;;;;;;;;;4986684;28;20038;-42
2021/11/08 10:04:29;;;;;;;10.57;9.52;;;;;;;;;;4991013;28;20042;-42
2021/11/08 10:06:56;;;;;;;7.18;6.78;;;;;;;;;;4987388;28;20693;-42
2021/11/08 10:09:29;;;;;;;7.10;6.60;;;;;;;;;;4988654;28;20046;-42
2021/11/08 10:11:57;;;;;;;8.35;7.95;;;;;;;;;;4990738;28;20046;-42
2021/11/08 10:14:24;;;;;;;12.48;9.43;;;;;;;;;;4988447;28;20049;-41
2021/11/08 10:16:53;;;;;;;9.80;8.70;;;;;;;;;;4990719;28;20051;-41
2021/11/08 10:19:23;;;;;;;11.70;9.93;;;;;;;;;;4983657;28;20081;-42
2021/11/08 10:21:52;;;;;;;9.73;8.65;;;;;;;;;;4987330;28;20038;-41
2021/11/08 10:24:30;;;;;;;7.13;6.70;;;;;;;;;;4981291;28;20046;-41
2021/11/08 10:26:59;;;;;;;7.00;6.13;;;;;;;;;;4983140;28;20042;-41
2021/11/08 10:29:26;;;;;;;7.75;7.22;;;;;;;;;;4990615;28;20070;-42
2021/11/08 10:32:06;;;;;;;8.57;6.38;;;;;;;;;;5002888;28;20057;-41
2021/11/08 10:34:33;;;;;;;9.23;6.30;;;;;;;;;;4988895;28;20089;-42
2021/11/08 10:37:03;;;;;;;7.60;7.03;;;;;;;;;;4989043;28;20093;-42
2021/11/08 10:39:34;;;;;;;6.85;6.40;;;;;;;;;;4988225;28;20571;-43
2021/11/08 10:42:04;;;;;;;11.43;7.10;;;;;;;;;;4983925;28;20092;-42
2021/11/08 10:44:31;;;;;;;8.52;6.50;;;;;;;;;;4987963;28;20100;-42
2021/11/08 10:47:03;;;;;;;6.72;6.05;;;;;;;;;;4971575;28;20057;-43
2021/11/08 10:49:42;;;;;;;9.13;5.97;;;;;;;;;;4978069;28;20101;-43
2021/11/08 10:52:14;;;;;;;6.60;2.35;;;;;;;;;;4981380;28;20051;-43
2021/11/08 10:54:46;;;;;;;3.80;1.08;;;;;;;;;;4987744;28;20047;-43
2021/11/08 10:57:16;;;;;;;3.17;1.52;;;;;;;;;;4988587;28;20494;-42
2021/11/08 10:59:46;;;;;;;1.42;1.15;;;;;;;;;;4984624;28;20093;-42
2021/11/08 11:02:14;;;;;;;1.23;1.10;;;;;;;;;;4985824;28;20066;-43
2021/11/08 11:04:45;;;;;;;4.30;0.90;;;;;;;;;;4985619;28;20704;-43
2021/11/08 11:07:41;;;;;;;4.65;2.13;;;;;;;;;;4986816;28;20046;-42
2021/11/08 11:10:08;;;;;;;2.10;0.95;;;;;;;;;;4987109;28;20074;-43
2021/11/08 11:12:43;;;;;;;5.72;1.20;;;;;;;;;;4985928;28;20042;-43
2021/11/08 11:15:12;;;;;;;2.88;1.00;;;;;;;;;;4979174;28;20445;-42
2021/11/08 11:17:44;;;;;;;5.85;0.95;;;;;;;;;;4985010;28;20034;-42
2021/11/08 11:20:13;;;;;;;2.95;1.02;;;;;;;;;;4988773;28;20093;-42
2021/11/08 11:22:49;;;;;;;3.63;0.90;;;;;;;;;;4992372;28;20482;-43
2021/11/08 11:25:17;;;;;;;1.17;0.98;;;;;;;;;;4990257;28;20046;-43
2021/11/08 11:27:48;;;;;;;1.85;1.10;;;;;;;;;;4991107;28;20042;-42
2021/11/08 11:30:20;;;;;;;1.80;1.00;;;;;;;;;;4985858;28;20042;-42
2021/11/08 11:33:01;;;;;;;7.57;1.10;;;;;;;;;;4985531;28;20108;-43
2021/11/08 11:35:32;;;;;;;4.10;1.27;;;;;;;;;;4989225;28;20402;-42
2021/11/08 11:38:03;;;;;;;1.02;0.90;;;;;;;;;;4989171;28;20430;-43
2021/11/08 11:40:31;;;;;;;1.25;0.90;;;;;;;;;;4985767;28;20182;-42
2021/11/08 11:43:00;;;;;;;1.85;0.90;;;;;;;;;;4991595;28;20101;-43
2021/11/08 11:45:27;;;;;;;2.00;0.90;;;;;;;;;;4988061;28;20972;-42
2021/11/08 11:48:01;;;;;;;3.53;0.88;;;;;;;;;;4987962;28;20039;-42
2021/11/08 11:50:29;;;;;;;3.20;1.38;;;;;;;;;;4988445;28;20051;-42
2021/11/08 11:52:56;;;;;;;2.40;1.27;;;;;;;;;;4991731;28;20101;-43
2021/11/08 11:55:23;;;;;;;2.50;0.90;;;;;;;;;;4989490;28;20034;-43
2021/11/08 11:57:51;;;;;;;2.05;1.10;;;;;;;;;;4978096;28;20081;-42
2021/11/08 12:00:17;;;;;;;3.35;1.00;;;;;;;;;;4993183;28;20722;-43
2021/11/08 12:02:44;;;;;;;2.47;1.00;;;;;;;;;;4985160;28;20050;-42
2021/11/08 12:05:11;;;;;;;2.40;0.90;;;;;;;;;;4989447;28;20046;-42
2021/11/08 12:07:38;;;;;;;1.33;1.15;;;;;;;;;;4988627;28;20052;-42
2021/11/08 12:10:05;;;;;;;1.10;1.00;;;;;;;;;;4991944;28;20117;-43
2021/11/08 12:12:32;;;;;;;1.60;1.10;;;;;;;;;;4986924;28;20039;-42
2021/11/08 12:15:07;;;;;;;1.50;1.08;;;;;;;;;;4981536;28;20433;-43
2021/11/08 12:17:42;;;;;;;3.63;0.90;;;;;;;;;;4986679;28;20049;-43
2021/11/08 12:20:14;;;;;;;4.82;2.20;;;;;;;;;;4989225;28;20809;-43
2021/11/08 12:22:40;;;;;;;1.35;1.00;;;;;;;;;;4988370;28;20643;-44
2021/11/08 12:25:09;;;;;;;1.20;1.10;;;;;;;;;;4993142;28;20078;-43
2021/11/08 12:27:45;;;;;;;4.40;1.52;;;;;;;;;;4989740;28;20076;-43
2021/11/08 12:30:18;;;;;;;1.10;1.00;;;;;;;;;;4992004;28;20474;-43
2021/11/08 12:32:49;;;;;;;2.00;1.90;;;;;;;;;;4985433;28;20494;-44
2021/11/08 12:35:24;;;;;;;1.40;1.10;;;;;;;;;;4990157;28;20052;-43
2021/11/08 12:37:51;;;;;;;2.38;1.00;;;;;;;;;;4985542;28;20050;-42
2021/11/08 12:40:20;;;;;;;1.00;1.00;;;;;;;;;;4988516;28;20658;-44
2021/11/08 12:42:49;;;;;;;1.23;0.90;;;;;;;;;;4992142;28;20038;-42
2021/11/08 12:45:23;;;;;;;2.25;1.00;;;;;;;;;;4989035;28;20073;-43
2021/11/08 12:48:00;;;;;;;1.00;1.00;;;;;;;;;;4988050;28;20500;-43
2021/11/08 12:50:52;;;;;;;0.93;0.90;;;;;;;;;;4981223;28;20042;-42
2021/11/08 12:53:24;;;;;;;1.02;0.98;;;;;;;;;;4984499;28;20051;-43
2021/11/08 12:55:52;;;;;;;0.95;0.95;;;;;;;;;;4991692;28;20049;-42
2021/11/08 12:58:32;;;;;;;1.02;1.00;;;;;;;;;;4989872;28;20088;-42
2021/11/08 13:01:01;;;;;;;0.90;0.90;;;;;;;;;;4990049;28;20042;-42
2021/11/08 13:03:30;;;;;;;3.40;1.10;;;;;;;;;;4981424;28;20042;-41
2021/11/08 13:06:00;;;;;;;1.42;0.80;;;;;;;;;;4982837;28;20041;-43
2021/11/08 13:08:27;;;;;;;0.80;0.80;;;;;;;;;;4981481;28;20392;-42
2021/11/08 13:10:59;;;;;;;0.70;0.70;;;;;;;;;;4988455;28;20129;-43
2021/11/08 13:13:27;;;;;;;1.17;0.80;;;;;;;;;;4982889;28;20046;-42
2021/11/08 13:16:00;;;;;;;0.80;0.80;;;;;;;;;;4989523;28;20548;-42
2021/11/08 13:18:37;;;;;;;0.80;0.80;;;;;;;;;;4987169;28;20380;-42
2021/11/08 13:21:04;;;;;;;0.95;0.80;;;;;;;;;;4988786;28;20442;-42
2021/11/08 13:23:32;;;;;;;0.90;0.90;;;;;;;;;;4989792;28;20105;-48
2021/11/08 13:25:59;;;;;;;1.95;0.80;;;;;;;;;;4985662;28;20085;-48
2021/11/08 13:28:27;;;;;;;0.80;0.80;;;;;;;;;;4985415;28;20043;-50
2021/11/08 13:30:55;;;;;;;1.40;1.40;;;;;;;;;;4987898;28;21359;-47
2021/11/08 13:33:26;;;;;;;0.80;0.80;;;;;;;;;;4988140;28;20089;-47
2021/11/08 13:35:53;;;;;;;0.70;0.70;;;;;;;;;;5003694;28;20034;-48
2021/11/08 13:38:21;;;;;;;0.80;0.80;;;;;;;;;;4986821;28;20050;-48
2021/11/08 13:40:50;;;;;;;1.33;0.70;;;;;;;;;;4989526;28;20062;-48
2021/11/08 13:43:22;;;;;;;0.77;0.73;;;;;;;;;;4988293;28;20038;-49
2021/11/08 13:45:49;;;;;;;0.80;0.80;;;;;;;;;;4988921;28;20418;-50
2021/11/08 13:48:23;;;;;;;0.70;0.70;;;;;;;;;;4986696;28;20050;-47
2021/11/08 13:50:51;;;;;;;0.70;0.70;;;;;;;;;;4989387;28;20066;-49
2021/11/08 13:53:21;;;;;;;3.13;0.70;;;;;;;;;;4989219;28;20406;-49
2021/11/08 13:55:48;;;;;;;0.90;0.90;;;;;;;;;;4986463;28;20117;-48
2021/11/08 13:58:19;;;;;;;0.68;0.68;;;;;;;;;;4975308;28;20110;-49
2021/11/08 14:00:46;;;;;;;0.80;0.80;;;;;;;;;;4988290;28;20374;-48
2021/11/08 14:03:14;;;;;;;0.95;0.80;;;;;;;;;;4988169;28;20042;-49
2021/11/08 14:05:51;;;;;;;0.80;0.80;;;;;;;;;;4989751;28;20046;-48
2021/11/08 14:08:21;;;;;;;0.70;0.70;;;;;;;;;;4987235;28;20425;-48
2021/11/08 14:10:52;;;;;;;0.80;0.80;;;;;;;;;;4989581;28;20112;-49
2021/11/08 14:13:18;;;;;;;0.77;0.77;;;;;;;;;;4986334;28;20046;-48
2021/11/08 14:15:55;;;;;;;0.80;0.80;;;;;;;;;;4987017;28;20035;-50
2021/11/08 14:18:22;;;;;;;0.80;0.80;;;;;;;;;;4987522;28;20042;-48
2021/11/08 14:20:48;;;;;;;0.90;0.90;;;;;;;;;;4984640;28;20085;-49
2021/11/08 14:23:25;;;;;;;0.80;0.80;;;;;;;;;;4989698;28;20038;-49
2021/11/08 14:25:52;;;;;;;0.80;0.80;;;;;;;;;;4988011;28;20050;-50
2021/11/08 14:28:25;;;;;;;0.80;0.80;;;;;;;;;;4986281;28;20093;-49
2021/11/08 14:30:52;;;;;;;0.80;0.80;;;;;;;;;;4989314;28;20100;-49
2021/11/08 14:33:19;;;;;;;0.90;0.90;;;;;;;;;;4985395;28;20076;-48
2021/11/08 14:35:45;;;;;;;0.80;0.80;;;;;;;;;;4989300;28;20039;-49
2021/11/08 14:38:22;;;;;;;0.82;0.82;;;;;;;;;;4987023;28;20035;-49
2021/11/08 14:40:48;;;;;;;0.80;0.80;;;;;;;;;;4988202;28;20046;-48
2021/11/08 14:43:16;;;;;;;0.80;0.80;;;;;;;;;;4989342;28;20513;-48
2021/11/08 14:45:52;;;;;;;0.93;0.93;;;;;;;;;;4987749;28;20050;-47
2021/11/08 14:48:22;;;;;;;1.10;1.10;;;;;;;;;;4989376;28;20133;-49
2021/11/08 14:50:49;;;;;;;0.85;0.85;;;;;;;;;;4988219;28;20038;-51
2021/11/08 14:53:16;;;;;;;0.80;0.80;;;;;;;;;;4987277;28;20053;-48
2021/11/08 14:55:43;;;;;;;2.38;0.90;;;;;;;;;;4988356;28;20100;-48
2021/11/08 14:58:14;;;;;;;0.90;0.90;;;;;;;;;;4988055;28;20728;-48
2021/11/08 15:00:41;;;;;;;0.90;0.90;;;;;;;;;;4985277;28;20123;-48
2021/11/08 15:03:10;;;;;;;0.90;0.90;;;;;;;;;;4987989;28;20113;-50
2021/11/08 15:05:37;;;;;;;0.90;0.90;;;;;;;;;;4985894;28;20481;-50
2021/11/08 15:08:10;;;;;;;1.75;0.80;;;;;;;;;;4989353;28;20050;-51
2021/11/08 15:10:38;;;;;;;0.90;0.90;;;;;;;;;;4981087;28;20042;-48
2021/11/08 15:13:06;;;;;;;0.90;0.90;;;;;;;;;;4989711;28;20713;-50
2021/11/08 15:15:43;;;;;;;0.80;0.80;;;;;;;;;;4984967;28;20085;-51
2021/11/08 15:18:12;;;;;;;0.90;0.90;;;;;;;;;;4986235;28;20038;-48
2021/11/08 15:20:46;;;;;;;0.90;0.90;;;;;;;;;;4989478;28;20097;-49
2021/11/08 15:23:13;;;;;;;0.90;0.90;;;;;;;;;;4988107;28;20046;-49
2021/11/08 15:25:50;;;;;;;0.90;0.90;;;;;;;;;;4990295;28;20046;-51
2021/11/08 15:28:19;;;;;;;0.90;0.90;;;;;;;;;;4986449;28;20386;-49
2021/11/08 15:30:52;;;;;;;0.75;0.75;;;;;;;;;;4987062;28;20073;-49
2021/11/08 15:33:20;;;;;;;0.80;0.80;;;;;;;;;;4978552;28;20038;-49
2021/11/08 15:35:51;;;;;;;0.90;0.90;;;;;;;;;;4979276;28;20081;-48
2021/11/08 15:38:19;;;;;;;0.90;0.90;;;;;;;;;;4989228;28;20046;-50
2021/11/08 15:40:46;;;;;;;0.80;0.80;;;;;;;;;;4987334;28;20433;-48
2021/11/08 15:43:14;;;;;;;1.58;1.58;;;;;;;;;;4988240;28;20491;-51
2021/11/08 15:45:43;;;;;;;2.35;2.17;;;;;;;;;;4979638;28;20098;-48
2021/11/08 15:48:10;;;;;;;1.95;1.10;;;;;;;;;;4979819;28;20053;-51
2021/11/08 15:50:37;;;;;;;0.95;0.95;;;;;;;;;;4989753;28;20042;-48
2021/11/08 15:53:04;;;;;;;6.82;6.55;;;;;;;;;;4984927;28;20088;-49
2021/11/08 15:55:31;;;;;;;3.65;3.53;;;;;;;;;;4982698;28;20422;-49
2021/11/08 15:57:58;;;;;;;2.00;1.90;;;;;;;;;;4989066;28;20031;-50
2021/11/08 16:00:25;;;;;;;1.10;1.10;;;;;;;;;;4986647;28;20470;-50
2021/11/08 16:02:52;;;;;;;1.25;1.25;;;;;;;;;;4981431;28;20045;-47
2021/11/08 16:05:18;;;;;;;2.60;2.50;;;;;;;;;;4984737;28;20062;-51
2021/11/08 16:07:45;;;;;;;4.00;3.90;;;;;;;;;;4987426;28;20510;-50
2021/11/08 16:10:12;;;;;;;3.92;3.83;;;;;;;;;;4992784;28;20046;-49
2021/11/08 16:12:39;;;;;;;3.13;3.03;;;;;;;;;;4990151;28;20490;-47
2021/11/08 16:15:06;;;;;;;4.25;4.15;;;;;;;;;;4989839;28;20105;-49
2021/11/08 16:17:37;;;;;;;3.65;3.35;;;;;;;;;;4986115;28;20030;-48
2021/11/08 16:20:04;;;;;;;3.92;3.65;;;;;;;;;;4990945;28;20544;-51
2021/11/08 16:22:32;;;;;;;2.55;2.45;;;;;;;;;;4989028;28;20132;-49
2021/11/08 16:24:59;;;;;;;12.30;11.23;;;;;;;;;;4990292;28;20058;-49
2021/11/08 16:27:26;;;;;;;9.27;8.35;;;;;;;;;;4992238;28;20045;-49